createdAt,value
2022-10-03T00:00:39.229Z,1026.751831
2022-10-03T00:01:34.244Z,1026.703491
2022-10-03T00:03:38.733Z,1026.776367
2022-10-03T00:04:37.985Z,1026.74646
2022-10-03T00:05:35.284Z,1026.754883
2022-10-03T00:06:37.957Z,1026.783936
2022-10-03T00:07:34.365Z,1026.74646
2022-10-03T00:08:36.528Z,1026.800171
2022-10-03T00:09:32.017Z,1026.803101
2022-10-03T00:10:31.519Z,1026.86438
2022-10-03T00:11:29.926Z,1026.786987
2022-10-03T00:12:29.844Z,1026.837646
2022-10-03T00:14:31.970Z,1026.870361
2022-10-03T00:15:27.744Z,1026.862061
2022-10-03T00:16:28.178Z,1026.888916
2022-10-03T00:17:25.857Z,1026.813843
2022-10-03T00:19:02.475Z,1026.835449
2022-10-03T00:21:37.323Z,1026.834595
2022-10-03T00:22:12.012Z,1026.90979
2022-10-03T00:23:11.079Z,1026.856079
2022-10-03T00:24:09.394Z,1026.952637
2022-10-03T00:25:07.866Z,1026.939453
2022-10-03T00:26:08.883Z,1026.939331
2022-10-03T00:27:06.448Z,1026.988403
2022-10-03T00:29:04.732Z,1026.990601
2022-10-03T00:30:06.934Z,1027.017944
2022-10-03T00:31:05.007Z,1026.982666
2022-10-03T00:32:05.491Z,1026.993286
2022-10-03T00:33:04.740Z,1027.023193
2022-10-03T00:34:09.059Z,1027.028564
2022-10-03T00:35:07.126Z,1026.974854
2022-10-03T00:36:13.525Z,1027.00708
2022-10-03T00:37:12.506Z,1027.026001
2022-10-03T00:39:09.149Z,1027.031128
2022-10-03T00:40:10.692Z,1027.082031
2022-10-03T00:41:11.866Z,1027.001465
2022-10-03T00:42:15.277Z,1027.012085
2022-10-03T00:43:08.598Z,1027.036499
2022-10-03T00:44:14.319Z,1027.036499
2022-10-03T00:45:16.196Z,1027.04187
2022-10-03T00:46:14.017Z,1027.052734
2022-10-03T00:47:16.678Z,1027.036499
2022-10-03T00:49:13.603Z,1027.068726
2022-10-03T00:50:11.571Z,1027.0177
2022-10-03T00:51:11.664Z,1027.108765
2022-10-03T00:52:07.453Z,1027.087158
2022-10-03T00:54:22.795Z,1027.122192
2022-10-03T00:55:24.843Z,1027.079346
2022-10-03T00:56:20.785Z,1027.146851
2022-10-03T00:57:29.639Z,1027.175659
2022-10-03T00:59:24.225Z,1027.148926
2022-10-03T01:00:24.148Z,1027.221313
2022-10-03T01:01:22.450Z,1027.221313
2022-10-03T01:03:07.917Z,1027.235107
2022-10-03T01:03:48.984Z,1027.2323
2022-10-03T01:04:49.377Z,1027.2323
2022-10-03T01:05:46.401Z,1027.264404
2022-10-03T01:06:45.191Z,1027.291016
2022-10-03T01:08:45.017Z,1027.264648
2022-10-03T01:09:42.445Z,1027.186401
2022-10-03T01:10:38.211Z,1027.243164
2022-10-03T01:11:40.055Z,1027.23999
2022-10-03T01:13:41.357Z,1027.259155
2022-10-03T01:14:40.568Z,1027.21106
2022-10-03T01:15:38.403Z,1027.320435
2022-10-03T01:16:41.011Z,1027.296631
2022-10-03T01:18:37.323Z,1027.320557
2022-10-03T01:19:32.595Z,1027.296875
2022-10-03T01:20:35.134Z,1027.334351
2022-10-03T01:21:27.462Z,1027.312988
2022-10-03T01:22:29.267Z,1027.304443
2022-10-03T01:24:30.547Z,1027.266968
2022-10-03T01:25:22.515Z,1027.291626
2022-10-03T01:26:25.161Z,1027.250732
2022-10-03T01:27:18.328Z,1027.259155
2022-10-03T01:29:15.244Z,1027.296997
2022-10-03T01:30:19.491Z,1027.267212
2022-10-03T01:31:15.904Z,1027.269775
2022-10-03T01:32:14.675Z,1027.251221
2022-10-03T01:34:14.971Z,1027.315552
2022-10-03T01:35:14.296Z,1027.299438
2022-10-03T01:36:18.828Z,1027.226929
2022-10-03T01:37:11.211Z,1027.251221
2022-10-03T01:40:34.422Z,1027.181274
2022-10-03T01:41:18.334Z,1027.186768
2022-10-03T01:42:17.268Z,1027.167847
2022-10-03T01:44:19.242Z,1027.216064
2022-10-03T01:45:21.649Z,1027.270264
2022-10-03T01:46:23.986Z,1027.243164
2022-10-03T01:47:24.267Z,1027.312866
2022-10-03T01:48:24.777Z,1027.17334
2022-10-03T01:49:21.011Z,1027.285889
2022-10-03T01:50:22.119Z,1027.312744
2022-10-03T01:51:21.265Z,1027.342285
2022-10-03T01:52:22.324Z,1027.320923
2022-10-03T01:54:22.498Z,1027.336914
2022-10-03T01:55:21.080Z,1027.318115
2022-10-03T01:56:23.219Z,1027.31543
2022-10-03T01:57:19.869Z,1027.30188
2022-10-03T01:58:25.683Z,1027.339844
2022-10-03T01:59:27.492Z,1027.379639
2022-10-03T02:00:26.001Z,1027.398804
2022-10-03T02:01:27.338Z,1027.427734
2022-10-03T02:02:28.658Z,1027.45459
2022-10-03T02:04:22.883Z,1027.449463
2022-10-03T02:05:19.563Z,1027.567383
2022-10-03T02:06:24.635Z,1027.481445
2022-10-03T02:07:21.412Z,1027.535034
2022-10-03T02:08:22.168Z,1027.497437
2022-10-03T02:09:22.202Z,1027.545532
2022-10-03T02:10:24.772Z,1027.516479
2022-10-03T02:11:21.826Z,1027.550903
2022-10-03T02:12:26.059Z,1027.516479
2022-10-03T02:13:20.282Z,1027.586182
2022-10-03T02:14:34.041Z,1027.575562
2022-10-03T02:15:33.041Z,1027.668945
2022-10-03T02:16:33.368Z,1027.652832
2022-10-03T02:17:31.575Z,1027.580933
2022-10-03T02:19:32.293Z,1027.620605
2022-10-03T02:20:35.408Z,1027.570068
2022-10-03T02:21:30.483Z,1027.596924
2022-10-03T02:22:08.500Z,1027.696289
2022-10-03T02:23:09.366Z,1027.661377
2022-10-03T02:24:12.491Z,1027.69043
2022-10-03T02:25:13.240Z,1027.696289
2022-10-03T02:27:01.715Z,1027.704224
2022-10-03T02:27:44.014Z,1027.636963
2022-10-03T02:28:44.955Z,1027.669189
2022-10-03T02:29:47.017Z,1027.720703
2022-10-03T02:30:45.298Z,1027.696045
2022-10-03T02:31:53.099Z,1027.679932
2022-10-03T02:32:50.036Z,1027.717407
2022-10-03T02:33:53.253Z,1027.695801
2022-10-03T02:34:53.768Z,1027.669434
2022-10-03T02:35:53.185Z,1027.725464
2022-10-03T02:36:58.324Z,1027.712158
2022-10-03T02:39:01.277Z,1027.77124
2022-10-03T02:40:02.568Z,1027.738892
2022-10-03T02:41:03.806Z,1027.677124
2022-10-03T02:42:03.190Z,1027.685303
2022-10-03T02:43:08.348Z,1027.768555
2022-10-03T02:44:03.192Z,1027.725464
2022-10-03T02:45:08.855Z,1027.650635
2022-10-03T02:46:08.726Z,1027.690674
2022-10-03T02:47:05.659Z,1027.736206
2022-10-03T02:49:12.450Z,1027.704224
2022-10-03T02:50:09.233Z,1027.706543
2022-10-03T02:51:12.967Z,1027.695801
2022-10-03T02:52:13.722Z,1027.763184
2022-10-03T02:54:15.825Z,1027.760376
2022-10-03T02:55:15.905Z,1027.720093
2022-10-03T02:56:20.098Z,1027.666504
2022-10-03T02:57:17.145Z,1027.744385
2022-10-03T02:58:19.494Z,1027.781982
2022-10-03T02:59:20.095Z,1027.795044
2022-10-03T03:00:19.133Z,1027.862061
2022-10-03T03:01:25.349Z,1027.805664
2022-10-03T03:02:32.362Z,1027.800171
2022-10-03T03:05:22.203Z,1027.894165
2022-10-03T03:05:43.442Z,1027.913086
2022-10-03T03:06:42.418Z,1027.768677
2022-10-03T03:07:45.914Z,1027.785034
2022-10-03T03:08:42.999Z,1027.779541
2022-10-03T03:09:44.810Z,1027.848999
2022-10-03T03:10:40.149Z,1027.763184
2022-10-03T03:11:41.778Z,1027.811401
2022-10-03T03:12:41.214Z,1027.781616
2022-10-03T03:13:40.191Z,1027.80835
2022-10-03T03:14:40.243Z,1027.884033
2022-10-03T03:15:42.494Z,1027.870361
2022-10-03T03:16:34.891Z,1027.843384
2022-10-03T03:17:34.358Z,1027.845947
2022-10-03T03:19:28.856Z,1027.888794
2022-10-03T03:20:24.059Z,1027.883301
2022-10-03T03:21:32.563Z,1027.89917
2022-10-03T03:22:35.253Z,1027.907593
2022-10-03T03:23:34.905Z,1027.880737
2022-10-03T03:24:30.701Z,1027.827271
2022-10-03T03:25:30.896Z,1027.845581
2022-10-03T03:26:28.840Z,1027.816284
2022-10-03T03:27:31.666Z,1027.834473
2022-10-03T03:29:39.307Z,1027.880493
2022-10-03T03:30:36.278Z,1027.920166
2022-10-03T03:31:36.261Z,1027.88855
2022-10-03T03:33:36.454Z,1027.915283
2022-10-03T03:34:35.444Z,1027.930908
2022-10-03T03:35:35.270Z,1027.917725
2022-10-03T03:36:33.467Z,1027.904053
2022-10-03T03:37:33.782Z,1027.909546
2022-10-03T03:38:28.384Z,1027.850464
2022-10-03T03:40:03.568Z,1027.859375
2022-10-03T03:42:24.887Z,1027.846924
2022-10-03T03:44:09.072Z,1027.76355
2022-10-03T03:45:09.911Z,1027.84668
2022-10-03T03:46:05.434Z,1027.907959
2022-10-03T03:47:04.626Z,1027.85498
2022-10-03T03:49:02.477Z,1027.958862
2022-10-03T03:49:56.580Z,1027.88623
2022-10-03T03:50:57.980Z,1027.905151
2022-10-03T03:51:56.237Z,1027.969116
2022-10-03T03:53:52.127Z,1028.017334
2022-10-03T03:54:55.930Z,1027.952759
2022-10-03T03:55:55.959Z,1027.984863
2022-10-03T03:56:59.581Z,1027.979248
2022-10-03T03:58:57.065Z,1027.952881
2022-10-03T03:59:48.676Z,1027.973999
2022-10-03T04:00:50.458Z,1028.030151
2022-10-03T04:01:41.958Z,1028.075806
2022-10-03T04:03:39.375Z,1027.922974
2022-10-03T04:04:39.134Z,1028.006104
2022-10-03T04:05:34.702Z,1027.954956
2022-10-03T04:06:33.495Z,1027.949341
2022-10-03T04:07:29.365Z,1027.949341
2022-10-03T04:09:23.233Z,1028.005737
2022-10-03T04:10:26.138Z,1028.024414
2022-10-03T04:11:17.682Z,1028.035034
2022-10-03T04:12:14.218Z,1028.131592
2022-10-03T04:14:08.517Z,1028.018921
2022-10-03T04:15:09.835Z,1028.038086
2022-10-03T04:16:06.926Z,1028.083862
2022-10-03T04:17:03.643Z,1028.06189
2022-10-03T04:19:01.841Z,1028.048706
2022-10-03T04:20:04.725Z,1028.032471
2022-10-03T04:21:01.810Z,1028.067383
2022-10-03T04:22:06.271Z,1028.150513
2022-10-03T04:22:59.499Z,1028.115479
2022-10-03T04:24:00.651Z,1028.096802
2022-10-03T04:24:52.233Z,1028.086182
2022-10-03T04:25:54.297Z,1028.118408
2022-10-03T04:27:31.609Z,1028.108154
2022-10-03T04:28:32.979Z,1028.063965
2022-10-03T04:29:28.436Z,1028.061157
2022-10-03T04:30:29.988Z,1028.059204
2022-10-03T04:31:29.831Z,1028.012939
2022-10-03T04:33:34.918Z,1028.123413
2022-10-03T04:34:15.088Z,1028.021606
2022-10-03T04:35:20.814Z,1028.064331
2022-10-03T04:36:15.135Z,1028.066895
2022-10-03T04:37:16.280Z,1028.026245
2022-10-03T04:39:06.983Z,1028.096191
2022-10-03T04:40:08.090Z,1028.122925
2022-10-03T04:41:06.030Z,1028.106567
2022-10-03T04:42:03.792Z,1028.10376
2022-10-03T04:43:58.342Z,1028.023071
2022-10-03T04:44:53.948Z,1028.140869
2022-10-03T04:45:54.602Z,1028.119385
2022-10-03T04:46:48.845Z,1028.159912
2022-10-03T04:48:43.154Z,1028.159912
2022-10-03T04:49:43.460Z,1028.127563
2022-10-03T04:50:39.780Z,1028.148926
2022-10-03T04:51:39.518Z,1028.143555
2022-10-03T04:52:33.903Z,1028.124268
2022-10-03T04:54:26.693Z,1028.167358
2022-10-03T04:55:26.536Z,1028.06311
2022-10-03T04:56:22.000Z,1028.111206
2022-10-03T04:57:23.386Z,1028.073853
2022-10-03T04:59:21.291Z,1028.132813
2022-10-03T05:00:14.708Z,1028.213257
2022-10-03T05:01:16.033Z,1028.156494
2022-10-03T05:02:13.409Z,1028.132813
2022-10-03T05:04:12.543Z,1028.226318
2022-10-03T05:05:39.713Z,1028.159546
2022-10-03T05:06:17.564Z,1028.210205
2022-10-03T05:07:17.641Z,1028.178101
2022-10-03T05:09:15.990Z,1028.094971
2022-10-03T05:10:20.070Z,1028.119019
2022-10-03T05:11:18.473Z,1028.167358
2022-10-03T05:12:18.915Z,1028.154175
2022-10-03T05:13:20.767Z,1028.143555
2022-10-03T05:14:21.171Z,1028.116699
2022-10-03T05:15:19.751Z,1028.151001
2022-10-03T05:16:15.320Z,1028.124268
2022-10-03T05:17:19.309Z,1028.137939
2022-10-03T05:19:27.391Z,1028.137939
2022-10-03T05:20:25.226Z,1028.175415
2022-10-03T05:21:28.258Z,1028.191528
2022-10-03T05:22:24.176Z,1028.199097
2022-10-03T05:24:20.339Z,1028.150757
2022-10-03T05:25:20.331Z,1028.097168
2022-10-03T05:26:43.677Z,1028.15625
2022-10-03T05:26:44.141Z,1028.15625
2022-10-03T05:26:45.746Z,1028.15625
2022-10-03T05:27:15.887Z,1028.143555
2022-10-03T05:28:15.919Z,1028.161987
2022-10-03T05:29:14.221Z,1028.133057
2022-10-03T05:30:20.745Z,1028.226318
2022-10-03T05:31:16.792Z,1028.151001
2022-10-03T05:32:22.393Z,1028.207764
2022-10-03T05:34:19.442Z,1028.191528
2022-10-03T05:35:20.319Z,1028.241821
2022-10-03T05:36:15.542Z,1028.250366
2022-10-03T05:37:15.650Z,1028.27417
2022-10-03T05:39:16.818Z,1028.320068
2022-10-03T05:40:11.763Z,1028.330811
2022-10-03T05:41:11.967Z,1028.373657
2022-10-03T05:42:22.717Z,1028.384521
2022-10-03T05:42:23.037Z,1028.384521
2022-10-03T05:42:23.461Z,1028.384521
2022-10-03T05:44:59.317Z,1028.3396
2022-10-03T05:45:54.779Z,1028.286011
2022-10-03T05:46:57.752Z,1028.347534
2022-10-03T05:49:28.054Z,1028.31311
2022-10-03T05:51:52.341Z,1028.36438
2022-10-03T05:52:31.454Z,1028.469238
2022-10-03T05:54:28.019Z,1028.380371
2022-10-03T05:55:27.611Z,1028.404663
2022-10-03T05:56:23.983Z,1028.463379
2022-10-03T05:57:23.154Z,1028.471802
2022-10-03T05:59:17.962Z,1028.594971
2022-10-03T06:00:17.868Z,1028.546387
2022-10-03T06:01:16.888Z,1028.535645
2022-10-03T06:02:19.946Z,1028.532837
2022-10-03T06:03:17.391Z,1028.543457
2022-10-03T06:04:19.361Z,1028.586426
2022-10-03T06:05:15.443Z,1028.613159
2022-10-03T06:06:14.540Z,1028.650757
2022-10-03T06:07:09.890Z,1028.602417
2022-10-03T06:08:08.907Z,1028.661133
2022-10-03T06:09:07.031Z,1028.687866
2022-10-03T06:10:11.059Z,1028.612915
2022-10-03T06:11:10.242Z,1028.653198
2022-10-03T06:12:04.674Z,1028.674561
2022-10-03T06:13:08.711Z,1028.682617
2022-10-03T06:14:02.998Z,1028.62915
2022-10-03T06:15:03.067Z,1028.709473
2022-10-03T06:15:58.577Z,1028.709473
2022-10-03T06:16:57.927Z,1028.677124
2022-10-03T06:18:54.756Z,1028.714722
2022-10-03T06:19:49.106Z,1028.709473
2022-10-03T06:20:50.513Z,1028.701294
2022-10-03T06:21:43.808Z,1028.703979
2022-10-03T06:23:44.993Z,1028.696167
2022-10-03T06:24:40.119Z,1028.720215
2022-10-03T06:26:28.322Z,1028.648804
2022-10-03T06:27:09.909Z,1028.654297
2022-10-03T06:29:09.921Z,1028.71875
2022-10-03T06:30:06.391Z,1028.670166
2022-10-03T06:31:07.348Z,1028.686157
2022-10-03T06:32:03.573Z,1028.701904
2022-10-03T06:34:00.969Z,1028.669678
2022-10-03T06:35:01.858Z,1028.661743
2022-10-03T06:35:59.562Z,1028.709839
2022-10-03T06:37:01.225Z,1028.715088
2022-10-03T06:38:59.392Z,1028.711914
2022-10-03T06:41:53.455Z,1028.662354
2022-10-03T06:42:30.483Z,1028.676514
2022-10-03T06:44:26.905Z,1028.643799
2022-10-03T06:45:30.837Z,1028.641113
2022-10-03T06:46:21.828Z,1028.608887
2022-10-03T06:47:21.135Z,1028.617188
2022-10-03T06:49:14.912Z,1028.646606
2022-10-03T06:50:09.024Z,1028.680908
2022-10-03T06:51:08.351Z,1028.74292
2022-10-03T06:52:02.714Z,1028.699951
2022-10-03T06:53:55.792Z,1028.750732
2022-10-03T06:54:54.633Z,1028.672852
2022-10-03T06:55:48.767Z,1028.747925
2022-10-03T06:56:49.622Z,1028.758545
2022-10-03T06:57:44.064Z,1028.750366
2022-10-03T06:58:38.068Z,1028.77478
2022-10-03T06:59:36.890Z,1028.718262
2022-10-03T07:00:31.484Z,1028.771973
2022-10-03T07:01:32.808Z,1028.817627
2022-10-03T07:02:25.597Z,1028.809448
2022-10-03T07:04:21.565Z,1028.860352
2022-10-03T07:05:15.529Z,1028.884399
2022-10-03T07:06:16.875Z,1028.900635
2022-10-03T07:07:08.535Z,1028.935669
2022-10-03T07:08:05.384Z,1028.951782
2022-10-03T07:09:03.777Z,1028.943604
2022-10-03T07:09:59.374Z,1028.916748
2022-10-03T07:11:02.075Z,1029.021606
2022-10-03T07:11:53.868Z,1028.967896
2022-10-03T07:13:47.187Z,1028.992065
2022-10-03T07:14:43.573Z,1028.962646
2022-10-03T07:16:06.256Z,1028.959961
2022-10-03T07:16:21.038Z,1028.959961
2022-10-03T07:17:48.074Z,1029.041016
2022-10-03T07:19:25.842Z,1028.974121
2022-10-03T07:20:27.304Z,1028.992798
2022-10-03T07:21:23.681Z,1029.011597
2022-10-03T07:22:25.190Z,1029.040894
2022-10-03T07:24:23.618Z,1029.036011
2022-10-03T07:25:19.988Z,1029.006104
2022-10-03T07:26:21.155Z,1028.998535
2022-10-03T07:27:17.558Z,1028.984619
2022-10-03T07:29:16.295Z,1029.009277
2022-10-03T07:30:17.130Z,1029.006104
2022-10-03T07:31:13.489Z,1029.030273
2022-10-03T07:32:15.163Z,1029.054688
2022-10-03T07:34:13.313Z,1029.057251
2022-10-03T07:35:09.778Z,1029.035889
2022-10-03T07:36:11.085Z,1029.0896
2022-10-03T07:37:07.704Z,1029.087036
2022-10-03T07:39:11.584Z,1029.137939
2022-10-03T07:40:05.609Z,1029.135498
2022-10-03T07:41:09.638Z,1029.089722
2022-10-03T07:42:04.279Z,1029.210327
2022-10-03T07:43:08.299Z,1029.135132
2022-10-03T07:44:03.604Z,1029.111694
2022-10-03T07:45:05.614Z,1029.119141
2022-10-03T07:46:02.231Z,1029.106323
2022-10-03T07:47:03.500Z,1029.18689
2022-10-03T07:49:04.105Z,1029.138672
2022-10-03T07:49:59.239Z,1029.17041
2022-10-03T07:51:00.637Z,1029.178589
2022-10-03T07:51:58.161Z,1029.221436
2022-10-03T07:53:56.605Z,1029.267212
2022-10-03T07:55:01.098Z,1029.337036
2022-10-03T07:55:55.389Z,1029.213501
2022-10-03T07:56:59.655Z,1029.307739
2022-10-03T07:57:54.020Z,1029.32666
2022-10-03T07:58:58.247Z,1029.285889
2022-10-03T07:59:53.398Z,1029.246216
2022-10-03T08:00:57.018Z,1029.216187
2022-10-03T08:01:52.411Z,1029.224731
2022-10-03T08:04:58.099Z,1029.300415
2022-10-03T08:09:15.917Z,1029.318237
2022-10-03T08:10:12.151Z,1029.377441
2022-10-03T08:11:11.715Z,1029.256836
2022-10-03T08:12:07.824Z,1029.326782
2022-10-03T08:13:07.010Z,1029.321411
2022-10-03T08:14:02.162Z,1029.291992
2022-10-03T08:15:02.404Z,1029.286499
2022-10-03T08:15:58.575Z,1029.308105
2022-10-03T08:16:56.921Z,1029.299805
2022-10-03T08:17:54.923Z,1029.401978
2022-10-03T08:18:50.068Z,1029.337524
2022-10-03T08:19:50.213Z,1029.388672
2022-10-03T08:20:46.270Z,1029.394043
2022-10-03T08:21:45.123Z,1029.299805
2022-10-03T08:23:40.278Z,1029.27832
2022-10-03T08:24:42.755Z,1029.289063
2022-10-03T08:25:35.804Z,1029.388306
2022-10-03T08:26:38.879Z,1029.302124
2022-10-03T08:27:32.307Z,1029.264404
2022-10-03T08:28:35.642Z,1029.312988
2022-10-03T08:29:30.079Z,1029.320801
2022-10-03T08:30:30.126Z,1029.275146
2022-10-03T08:31:26.521Z,1029.371216
2022-10-03T08:32:25.494Z,1029.358398
2022-10-03T08:34:23.348Z,1029.303467
2022-10-03T08:35:27.197Z,1029.35498
2022-10-03T08:36:21.659Z,1029.349243
2022-10-03T08:37:00.099Z,1029.397461
2022-10-03T08:37:59.384Z,1029.400269
2022-10-03T08:38:58.534Z,1029.394043
2022-10-03T08:39:57.837Z,1029.456299
2022-10-03T08:40:59.898Z,1029.453125
2022-10-03T08:42:01.998Z,1029.504028
2022-10-03T08:42:58.843Z,1029.484985
2022-10-03T08:43:56.112Z,1029.427979
2022-10-03T08:45:00.709Z,1029.448853
2022-10-03T08:45:55.419Z,1029.421631
2022-10-03T08:46:57.591Z,1029.442749
2022-10-03T08:48:57.198Z,1029.458618
2022-10-03T08:50:28.110Z,1029.352661
2022-10-03T08:51:08.955Z,1029.346924
2022-10-03T08:52:08.146Z,1029.365356
2022-10-03T08:53:09.760Z,1029.330566
2022-10-03T08:54:06.549Z,1029.356567
2022-10-03T08:55:08.139Z,1029.33252
2022-10-03T08:56:06.152Z,1029.386108
2022-10-03T08:57:04.063Z,1029.323486
2022-10-03T08:58:05.419Z,1029.337646
2022-10-03T08:59:01.638Z,1029.314941
2022-10-03T09:00:05.413Z,1029.304077
2022-10-03T09:00:59.413Z,1029.355469
2022-10-03T09:02:00.372Z,1029.290527
2022-10-03T09:03:20.527Z,1029.296143
2022-10-03T09:03:31.549Z,1029.296143
2022-10-03T09:03:33.592Z,1029.296143
2022-10-03T09:03:55.243Z,1029.363281
2022-10-03T09:04:56.192Z,1029.287598
2022-10-03T09:05:52.029Z,1029.276855
2022-10-03T09:07:18.082Z,1029.295776
2022-10-03T09:07:18.763Z,1029.295776
2022-10-03T09:07:51.539Z,1029.228394
2022-10-03T09:08:50.376Z,1029.171753
2022-10-03T09:09:46.547Z,1029.217529
2022-10-03T09:10:47.167Z,1029.144287
2022-10-03T09:11:43.238Z,1029.179688
2022-10-03T09:12:46.481Z,1029.212036
2022-10-03T09:13:39.831Z,1029.252197
2022-10-03T09:14:40.559Z,1029.187256
2022-10-03T09:15:37.689Z,1029.13855
2022-10-03T09:16:40.233Z,1029.278687
2022-10-03T09:17:33.007Z,1029.228027
2022-10-03T09:19:32.151Z,1029.287231
2022-10-03T09:20:28.204Z,1029.206299
2022-10-03T09:21:28.620Z,1029.267822
2022-10-03T09:22:25.840Z,1029.187012
2022-10-03T09:23:25.457Z,1029.292358
2022-10-03T09:24:21.554Z,1029.305298
2022-10-03T09:25:24.919Z,1029.265137
2022-10-03T09:26:57.929Z,1029.217041
2022-10-03T09:29:10.517Z,1029.297119
2022-10-03T09:29:50.504Z,1029.198486
2022-10-03T09:30:48.425Z,1029.184814
2022-10-03T09:31:48.610Z,1029.222778
2022-10-03T09:32:43.926Z,1029.237549
2022-10-03T09:33:43.166Z,1029.202515
2022-10-03T09:34:38.453Z,1029.17041
2022-10-03T09:35:38.292Z,1029.254517
2022-10-03T09:36:33.590Z,1029.319336
2022-10-03T09:37:33.462Z,1029.270996
2022-10-03T09:38:28.696Z,1029.217041
2022-10-03T09:39:28.728Z,1029.22229
2022-10-03T09:40:27.224Z,1029.24353
2022-10-03T09:41:22.700Z,1029.210938
2022-10-03T09:42:20.871Z,1029.277832
2022-10-03T09:44:17.555Z,1029.161133
2022-10-03T09:45:18.174Z,1029.249756
2022-10-03T09:46:14.359Z,1029.163086
2022-10-03T09:47:15.137Z,1029.165283
2022-10-03T09:49:48.016Z,1029.158936
2022-10-03T09:50:29.364Z,1029.136597
2022-10-03T09:51:29.594Z,1029.067749
2022-10-03T09:52:31.553Z,1029.121338
2022-10-03T09:53:29.563Z,1029.090698
2022-10-03T09:54:31.305Z,1029.084229
2022-10-03T09:55:29.368Z,1029.080688
2022-10-03T09:56:31.282Z,1029.079956
2022-10-03T09:57:29.292Z,1029.041992
2022-10-03T09:59:30.600Z,1028.962036
2022-10-03T10:00:28.044Z,1029.010376
2022-10-03T10:01:33.198Z,1028.974609
2022-10-03T10:03:54.779Z,1028.981445
2022-10-03T10:04:54.290Z,1028.978271
2022-10-03T10:04:54.802Z,1028.978271
2022-10-03T10:04:59.524Z,1028.978271
2022-10-03T10:05:38.763Z,1028.920044
2022-10-03T10:06:36.067Z,1028.927246
2022-10-03T10:07:37.005Z,1029.011353
2022-10-03T10:08:33.341Z,1028.966064
2022-10-03T10:09:31.763Z,1028.95874
2022-10-03T10:10:33.528Z,1028.91394
2022-10-03T10:11:35.035Z,1028.984131
2022-10-03T10:12:33.103Z,1028.915771
2022-10-03T10:14:31.966Z,1028.904053
2022-10-03T10:15:34.389Z,1028.868164
2022-10-03T10:16:28.928Z,1028.940674
2022-10-03T10:17:30.948Z,1028.894409
2022-10-03T10:18:27.252Z,1028.924438
2022-10-03T10:19:27.218Z,1028.925293
2022-10-03T10:20:22.704Z,1028.945435
2022-10-03T10:21:23.185Z,1028.957031
2022-10-03T10:22:18.560Z,1028.879028
2022-10-03T10:24:14.813Z,1028.81604
2022-10-03T10:25:17.770Z,1028.775635
2022-10-03T10:26:11.103Z,1028.805664
2022-10-03T10:27:11.877Z,1028.862549
2022-10-03T10:28:08.417Z,1028.865601
2022-10-03T10:29:07.824Z,1028.91272
2022-10-03T10:30:03.165Z,1028.888062
2022-10-03T10:31:03.048Z,1028.924316
2022-10-03T10:32:00.429Z,1028.876099
2022-10-03T10:32:55.691Z,1028.876587
2022-10-03T10:33:55.187Z,1028.936401
2022-10-03T10:34:49.983Z,1028.869385
2022-10-03T10:35:52.300Z,1028.929443
2022-10-03T10:36:44.803Z,1028.888916
2022-10-03T10:38:39.820Z,1028.913818
2022-10-03T10:39:42.423Z,1028.90564
2022-10-03T10:40:36.698Z,1028.913696
2022-10-03T10:41:35.706Z,1028.910889
2022-10-03T10:42:30.848Z,1028.930298
2022-10-03T10:43:32.473Z,1029.001587
2022-10-03T10:44:25.138Z,1028.896118
2022-10-03T10:45:26.915Z,1028.917847
2022-10-03T10:46:19.562Z,1028.917847
2022-10-03T10:47:21.883Z,1028.917847
2022-10-03T10:49:14.104Z,1028.915283
2022-10-03T10:50:52.206Z,1028.952148
2022-10-03T10:51:31.840Z,1028.919434
2022-10-03T10:52:29.945Z,1028.962524
2022-10-03T10:54:25.140Z,1028.841431
2022-10-03T10:55:26.237Z,1028.890259
2022-10-03T10:56:22.352Z,1028.863892
2022-10-03T10:57:21.629Z,1028.878052
2022-10-03T10:59:17.119Z,1028.840698
2022-10-03T11:00:12.259Z,1028.851563
2022-10-03T11:01:15.103Z,1028.854004
2022-10-03T11:02:12.777Z,1028.880981
2022-10-03T11:03:08.196Z,1028.854004
2022-10-03T11:04:03.638Z,1028.924072
2022-10-03T11:05:04.088Z,1028.843018
2022-10-03T11:05:59.334Z,1028.824585
2022-10-03T11:06:57.783Z,1028.859253
2022-10-03T11:07:57.266Z,1028.827026
2022-10-03T11:08:52.595Z,1028.854004
2022-10-03T11:09:55.298Z,1028.817139
2022-10-03T11:10:48.132Z,1028.801147
2022-10-03T11:11:48.339Z,1028.860229
2022-10-03T11:12:43.790Z,1028.871216
2022-10-03T11:13:43.992Z,1028.798218
2022-10-03T11:14:39.412Z,1028.760132
2022-10-03T11:15:48.176Z,1028.814209
2022-10-03T11:16:39.320Z,1028.819458
2022-10-03T11:17:34.789Z,1028.835449
2022-10-03T11:18:37.407Z,1028.775757
2022-10-03T11:19:30.304Z,1028.845825
2022-10-03T11:20:29.211Z,1028.804565
2022-10-03T11:21:28.949Z,1028.820801
2022-10-03T11:22:24.374Z,1028.77002
2022-10-03T11:23:24.558Z,1028.750488
2022-10-03T11:24:19.892Z,1028.77002
2022-10-03T11:25:22.990Z,1028.737793
2022-10-03T11:26:16.616Z,1028.791748
2022-10-03T11:28:53.710Z,1028.678833
2022-10-03T11:29:53.468Z,1028.740723
2022-10-03T11:31:30.873Z,1028.645996
2022-10-03T11:33:44.190Z,1028.630737
2022-10-03T11:34:23.785Z,1028.67395
2022-10-03T11:35:23.204Z,1028.637207
2022-10-03T11:36:18.543Z,1028.632813
2022-10-03T11:37:16.940Z,1028.655396
2022-10-03T11:39:11.035Z,1028.677124
2022-10-03T11:40:05.357Z,1028.720947
2022-10-03T11:41:04.527Z,1028.675659
2022-10-03T11:41:58.768Z,1028.67334
2022-10-03T11:43:52.108Z,1028.644775
2022-10-03T11:44:53.245Z,1028.580566
2022-10-03T11:45:45.007Z,1028.629517
2022-10-03T11:46:42.360Z,1028.516968
2022-10-03T11:47:40.169Z,1028.560669
2022-10-03T11:48:34.548Z,1028.679565
2022-10-03T11:49:33.151Z,1028.628418
2022-10-03T11:50:27.416Z,1028.574219
2022-10-03T11:51:28.652Z,1028.682373
2022-10-03T11:52:20.157Z,1028.647339
2022-10-03T11:53:16.460Z,1028.612183
2022-10-03T11:54:30.708Z,1028.71228
2022-10-03T11:54:31.096Z,1028.71228
2022-10-03T11:54:32.670Z,1028.71228
2022-10-03T11:55:12.608Z,1028.647461
2022-10-03T11:56:06.843Z,1028.595581
2022-10-03T11:57:05.700Z,1028.565674
2022-10-03T11:58:58.816Z,1028.692627
2022-10-03T11:59:53.133Z,1028.611572
2022-10-03T12:00:49.781Z,1028.630737
2022-10-03T12:01:51.407Z,1028.668579
2022-10-03T12:02:42.227Z,1028.6604
2022-10-03T12:03:43.594Z,1028.630737
2022-10-03T12:04:36.078Z,1028.611572
2022-10-03T12:05:37.186Z,1028.592773
2022-10-03T12:06:29.395Z,1028.627686
2022-10-03T12:07:29.966Z,1028.662842
2022-10-03T12:08:21.685Z,1028.627686
2022-10-03T12:09:22.728Z,1028.608765